createdAt,value
2023-03-17T00:02:05.144Z,102413.09
2023-03-17T00:04:33.446Z,102432.70
2023-03-17T00:07:01.822Z,102436.17
2023-03-17T00:09:29.909Z,102435.01
2023-03-17T00:11:58.628Z,102437.73
2023-03-17T00:14:26.755Z,102435.29
2023-03-17T00:16:54.789Z,102433.70
2023-03-17T00:19:32.338Z,102435.90
2023-03-17T00:22:01.472Z,102445.27
2023-03-17T00:24:29.942Z,102450.02
2023-03-17T00:26:58.228Z,102440.40
2023-03-17T00:29:26.961Z,102440.67
2023-03-17T00:31:57.734Z,102439.47
2023-03-17T00:34:25.891Z,102432.08
2023-03-17T00:36:53.820Z,102430.58
2023-03-17T00:39:25.520Z,102434.91
2023-03-17T00:41:55.633Z,102426.45
2023-03-17T00:44:24.306Z,102433.73
2023-03-17T00:46:54.422Z,102432.95
2023-03-17T00:49:25.126Z,102432.83
2023-03-17T00:51:53.168Z,102427.27
2023-03-17T00:54:23.390Z,102427.48
2023-03-17T00:56:52.653Z,102430.46
2023-03-17T00:59:24.344Z,102430.73
2023-03-17T01:01:52.603Z,102430.53
2023-03-17T01:04:23.007Z,102426.40
2023-03-17T01:06:53.070Z,102423.45
2023-03-17T01:09:25.976Z,102418.77
2023-03-17T01:11:55.720Z,102400.40
2023-03-17T01:14:25.206Z,102423.96
2023-03-17T01:16:53.308Z,102421.21
2023-03-17T01:19:22.176Z,102418.38
2023-03-17T01:21:50.343Z,102417.42
2023-03-17T01:24:18.659Z,102419.72
2023-03-17T01:26:47.142Z,102419.58
2023-03-17T01:29:16.611Z,102401.61
2023-03-17T01:31:46.246Z,102417.80
2023-03-17T01:34:14.331Z,102417.89
2023-03-17T01:36:43.736Z,102416.49
2023-03-17T01:39:12.907Z,102417.98
2023-03-17T01:41:40.917Z,102421.16
2023-03-17T01:44:17.213Z,102408.35
2023-03-17T01:46:47.501Z,102421.04
2023-03-17T01:49:27.867Z,102419.90
2023-03-17T01:52:07.641Z,102421.51
2023-03-17T01:54:52.883Z,102424.77
2023-03-17T01:57:24.535Z,102418.01
2023-03-17T01:59:58.874Z,102417.38
2023-03-17T02:02:31.397Z,102398.88
2023-03-17T02:05:00.344Z,102409.73
2023-03-17T02:07:28.576Z,102409.34
2023-03-17T02:09:58.129Z,102407.60
2023-03-17T02:12:29.198Z,102405.24
2023-03-17T02:14:57.962Z,102406.73
2023-03-17T02:17:27.901Z,102408.14
2023-03-17T02:19:56.199Z,102407.58
2023-03-17T02:22:24.684Z,102400.15
2023-03-17T02:24:58.549Z,102408.76
2023-03-17T02:27:39.599Z,102412.74
2023-03-17T02:30:11.962Z,102408.89
2023-03-17T02:32:40.503Z,102412.96
2023-03-17T02:35:09.677Z,102410.64
2023-03-17T02:37:38.941Z,102405.71
2023-03-17T02:40:08.203Z,102403.63
2023-03-17T02:42:36.689Z,102403.06
2023-03-17T02:45:06.389Z,102392.64
2023-03-17T02:47:34.837Z,102375.51
2023-03-17T02:50:04.806Z,102387.55
2023-03-17T02:52:32.797Z,102389.59
2023-03-17T02:55:00.956Z,102392.65
2023-03-17T02:57:28.986Z,102388.98
2023-03-17T02:59:57.007Z,102387.70
2023-03-17T03:02:25.075Z,102386.17
2023-03-17T03:04:53.286Z,102381.94
2023-03-17T03:07:21.357Z,102385.17
2023-03-17T03:09:49.395Z,102386.80
2023-03-17T03:12:17.859Z,102381.59
2023-03-17T03:14:46.107Z,102378.45
2023-03-17T03:17:14.423Z,102359.35
2023-03-17T03:19:42.609Z,102369.46
2023-03-17T03:22:10.891Z,102366.15
2023-03-17T03:24:38.920Z,102364.92
2023-03-17T03:27:07.219Z,102359.45
2023-03-17T03:29:35.491Z,102357.02
2023-03-17T03:32:03.637Z,102365.38
2023-03-17T03:34:31.919Z,102347.77
2023-03-17T03:36:59.900Z,102364.90
2023-03-17T03:39:27.858Z,102359.34
2023-03-17T03:41:58.343Z,102363.17
2023-03-17T03:44:26.379Z,102356.02
2023-03-17T03:46:54.657Z,102366.15
2023-03-17T03:49:23.039Z,102368.24
2023-03-17T03:51:51.258Z,102372.02
2023-03-17T03:54:19.324Z,102370.84
2023-03-17T03:56:47.402Z,102369.19
2023-03-17T03:59:15.396Z,102373.34
2023-03-17T04:01:43.376Z,102372.06
2023-03-17T04:04:11.340Z,102364.80
2023-03-17T04:06:39.762Z,102359.89
2023-03-17T04:09:09.352Z,102364.89
2023-03-17T04:11:37.347Z,102366.91
2023-03-17T04:14:06.547Z,102371.16
2023-03-17T04:16:34.591Z,102345.49
2023-03-17T04:19:02.944Z,102362.59
2023-03-17T04:21:30.965Z,102380.63
2023-03-17T04:23:59.259Z,102387.50
2023-03-17T04:26:27.388Z,102385.14
2023-03-17T04:28:55.644Z,102382.27
2023-03-17T04:31:23.789Z,102384.83
2023-03-17T04:33:52.355Z,102381.59
2023-03-17T04:36:22.286Z,102380.61
2023-03-17T04:38:50.891Z,102384.96
2023-03-17T04:41:19.518Z,102384.66
2023-03-17T04:43:47.985Z,102382.83
2023-03-17T04:46:16.513Z,102373.64
2023-03-17T04:48:44.851Z,102375.69
2023-03-17T04:51:12.947Z,102369.27
2023-03-17T04:53:41.206Z,102364.34
2023-03-17T04:56:09.391Z,102360.74
2023-03-17T04:58:38.311Z,102368.50
2023-03-17T05:01:07.567Z,102362.28
2023-03-17T05:03:36.206Z,102362.90
2023-03-17T05:06:05.302Z,102367.98
2023-03-17T05:08:33.401Z,102361.88
2023-03-17T05:11:01.548Z,102355.56
2023-03-17T05:13:29.717Z,102354.55
2023-03-17T05:15:59.561Z,102353.52
2023-03-17T05:18:28.174Z,102354.79
2023-03-17T05:20:56.341Z,102360.06
2023-03-17T05:23:24.756Z,102365.23
2023-03-17T05:25:53.210Z,102365.11
2023-03-17T05:28:22.231Z,102375.73
2023-03-17T05:30:51.052Z,102385.10
2023-03-17T05:33:20.334Z,102379.66
2023-03-17T05:35:48.767Z,102373.15
2023-03-17T05:38:17.237Z,102372.77
2023-03-17T05:40:45.961Z,102366.98
2023-03-17T05:43:14.249Z,102366.65
2023-03-17T05:45:42.470Z,102370.32
2023-03-17T05:48:12.452Z,102377.95
2023-03-17T05:50:41.846Z,102384.10
2023-03-17T05:53:10.783Z,102387.12
2023-03-17T05:55:39.048Z,102385.84
2023-03-17T05:58:08.010Z,102381.74
2023-03-17T06:00:36.552Z,102376.27
2023-03-17T06:03:05.250Z,102376.30
2023-03-17T06:05:34.377Z,102374.91
2023-03-17T06:08:02.620Z,102375.00
2023-03-17T06:10:31.445Z,102370.48
2023-03-17T06:13:03.876Z,102375.79
2023-03-17T06:15:34.181Z,102373.23
2023-03-17T06:18:05.291Z,102365.09
2023-03-17T06:20:34.098Z,102376.20
2023-03-17T06:23:05.289Z,102365.48
2023-03-17T06:25:35.881Z,102364.61
2023-03-17T06:28:05.749Z,102361.06
2023-03-17T06:30:35.491Z,102359.30
2023-03-17T06:33:04.067Z,102363.26
2023-03-17T06:35:33.613Z,102359.95
2023-03-17T06:38:02.508Z,102359.83
2023-03-17T06:40:32.309Z,102361.77
2023-03-17T06:43:01.345Z,102328.97
2023-03-17T06:45:30.470Z,102363.09
2023-03-17T06:47:59.014Z,102362.59
2023-03-17T06:50:27.359Z,102362.77
2023-03-17T06:52:56.149Z,102344.21
2023-03-17T06:55:24.299Z,102342.23
2023-03-17T06:57:52.683Z,102359.19
2023-03-17T07:00:22.568Z,102358.78
2023-03-17T07:02:51.346Z,102364.38
2023-03-17T07:05:19.593Z,102367.81
2023-03-17T07:07:47.933Z,102369.58
2023-03-17T07:10:17.420Z,102374.30
2023-03-17T07:12:46.121Z,102371.98
2023-03-17T07:15:14.378Z,102373.54
2023-03-17T07:17:42.672Z,102374.13
2023-03-17T07:20:11.922Z,102372.02
2023-03-17T07:22:41.180Z,102369.44
2023-03-17T07:25:10.021Z,102371.30
2023-03-17T07:27:38.916Z,102372.54
2023-03-17T07:30:07.855Z,102374.02
2023-03-17T07:32:36.384Z,102379.38
2023-03-17T07:35:05.570Z,102380.14
2023-03-17T07:37:33.817Z,102377.70
2023-03-17T07:40:02.085Z,102382.15
2023-03-17T07:42:30.387Z,102379.51
2023-03-17T07:44:58.761Z,102385.22
2023-03-17T07:47:27.202Z,102371.80
2023-03-17T07:49:55.382Z,102381.88
2023-03-17T07:52:23.467Z,102380.73
2023-03-17T07:54:52.232Z,102376.95
2023-03-17T07:57:20.491Z,102376.54
2023-03-17T07:59:49.110Z,102372.82
2023-03-17T08:02:18.387Z,102366.65
2023-03-17T08:04:47.156Z,102360.39
2023-03-17T08:07:15.710Z,102358.69
2023-03-17T08:09:44.034Z,102355.54
2023-03-17T08:12:12.331Z,102352.83
2023-03-17T08:14:41.625Z,102352.64
2023-03-17T08:17:10.632Z,102354.23
2023-03-17T08:19:41.202Z,102359.69
2023-03-17T08:22:09.979Z,102342.54
2023-03-17T08:24:39.841Z,102351.34
2023-03-17T08:27:08.838Z,102345.83
2023-03-17T08:29:37.063Z,102341.55
2023-03-17T08:32:05.973Z,102342.59
2023-03-17T08:34:34.151Z,102349.36
2023-03-17T08:37:03.010Z,102349.23
2023-03-17T08:39:31.999Z,102348.52
2023-03-17T08:42:00.135Z,102337.96
2023-03-17T08:44:28.362Z,102339.17
2023-03-17T08:46:57.061Z,102337.90
2023-03-17T08:49:25.291Z,102335.83
2023-03-17T08:51:53.731Z,102338.29
2023-03-17T08:54:22.101Z,102337.15
2023-03-17T08:56:50.196Z,102332.62
2023-03-17T08:59:18.274Z,102333.79
2023-03-17T09:01:47.224Z,102331.00
2023-03-17T09:04:15.591Z,102320.21
2023-03-17T09:07:01.298Z,102316.48
2023-03-17T09:09:31.278Z,102317.10
2023-03-17T09:11:59.488Z,102314.88
2023-03-17T09:14:28.980Z,102316.52
2023-03-17T09:16:57.805Z,102309.27
2023-03-17T09:19:26.061Z,102306.16
2023-03-17T09:21:54.219Z,102296.95
2023-03-17T09:24:22.331Z,102295.83
2023-03-17T09:26:50.566Z,102279.59
2023-03-17T09:29:18.714Z,102289.48
2023-03-17T09:31:47.658Z,102280.95
2023-03-17T09:34:15.725Z,102290.35
2023-03-17T09:36:43.947Z,102288.20
2023-03-17T09:39:12.872Z,102281.78
2023-03-17T09:41:43.721Z,102274.77
2023-03-17T09:44:23.055Z,102273.94
2023-03-17T09:47:25.630Z,102271.50
2023-03-17T09:50:01.324Z,102268.19
2023-03-17T09:52:32.101Z,102266.14
2023-03-17T09:55:03.456Z,102263.83
2023-03-17T09:57:37.184Z,102259.49
2023-03-17T10:00:07.981Z,102260.17
2023-03-17T10:02:40.629Z,102263.14
2023-03-17T10:05:23.464Z,102258.27
2023-03-17T10:08:28.893Z,102258.27
2023-03-17T10:11:15.004Z,102261.42
2023-03-17T10:13:54.969Z,102254.36
2023-03-17T10:16:35.339Z,102243.36
2023-03-17T10:19:13.025Z,102242.91
2023-03-17T10:21:50.068Z,102239.46
2023-03-17T10:24:19.711Z,102234.72
2023-03-17T10:26:51.107Z,102235.39
2023-03-17T10:29:22.847Z,102235.81
2023-03-17T10:31:53.344Z,102238.92
2023-03-17T10:34:32.293Z,102219.36
2023-03-17T10:37:05.765Z,102234.95
2023-03-17T10:39:49.384Z,102234.80
2023-03-17T10:42:29.277Z,102227.70
2023-03-17T10:45:13.382Z,102227.34
2023-03-17T10:47:47.345Z,102226.56
2023-03-17T10:50:18.470Z,102231.56
2023-03-17T10:52:47.942Z,102218.08
2023-03-17T10:55:21.499Z,102224.81
2023-03-17T10:57:51.538Z,102220.13
2023-03-17T11:00:22.036Z,102201.27
2023-03-17T11:02:58.755Z,102197.45
2023-03-17T11:05:30.411Z,102193.52
2023-03-17T11:08:18.545Z,102191.70
2023-03-17T11:10:53.799Z,102193.73
2023-03-17T11:13:22.032Z,102183.63
2023-03-17T11:15:54.651Z,102170.27
2023-03-17T11:18:30.600Z,102166.01
2023-03-17T11:21:08.356Z,102159.05
2023-03-17T11:24:01.934Z,102150.00
2023-03-17T11:26:39.074Z,102149.27
2023-03-17T11:29:24.608Z,102136.99
2023-03-17T11:32:11.168Z,102117.38
2023-03-17T11:34:45.180Z,102133.46
2023-03-17T11:37:19.505Z,102120.57
2023-03-17T11:40:15.869Z,102114.64
2023-03-17T11:42:53.516Z,102111.10
2023-03-17T11:45:38.303Z,102109.67
2023-03-17T11:48:32.322Z,102108.63
2023-03-17T11:51:10.509Z,102106.64
2023-03-17T11:54:01.173Z,102089.36
2023-03-17T11:56:57.747Z,102107.01
2023-03-17T11:59:36.335Z,102100.80
2023-03-17T12:02:17.441Z,102095.65
2023-03-17T12:05:21.932Z,102085.45
2023-03-17T12:07:53.382Z,102094.40
2023-03-17T12:10:28.854Z,102090.88
2023-03-17T12:13:07.096Z,102081.05
2023-03-17T12:15:51.172Z,102081.86
2023-03-17T12:18:33.095Z,102078.34
2023-03-17T12:21:09.705Z,102080.91
2023-03-17T12:23:48.234Z,102079.33
2023-03-17T12:26:35.162Z,102075.77
2023-03-17T12:29:37.999Z,102069.88
2023-03-17T12:32:12.564Z,102062.90
2023-03-17T12:34:52.081Z,102063.19
2023-03-17T12:37:21.591Z,102057.49
2023-03-17T12:39:56.266Z,102057.14
2023-03-17T12:42:33.028Z,102061.17
2023-03-17T12:45:30.754Z,102060.65
2023-03-17T12:48:17.477Z,102067.61
2023-03-17T12:51:29.955Z,102073.96
2023-03-17T12:54:00.259Z,102062.14
2023-03-17T12:56:31.680Z,102053.36
2023-03-17T12:59:06.190Z,102056.06
2023-03-17T13:01:40.678Z,102052.11
2023-03-17T13:05:00.113Z,102041.35
2023-03-17T13:08:00.413Z,102027.98
2023-03-17T13:10:48.097Z,102038.77
2023-03-17T13:13:41.178Z,102046.40
2023-03-17T13:16:41.287Z,102048.65
2023-03-17T13:19:16.549Z,102051.75
2023-03-17T13:21:53.363Z,102056.25
2023-03-17T13:24:34.522Z,102057.78
2023-03-17T13:27:04.747Z,102061.45
2023-03-17T13:29:33.013Z,102062.48
2023-03-17T13:32:16.055Z,102067.95
2023-03-17T13:35:18.109Z,102063.23
2023-03-17T13:38:13.480Z,102060.42
2023-03-17T13:41:12.578Z,102062.14
2023-03-17T13:43:50.349Z,102056.46
2023-03-17T13:46:25.637Z,102048.65
2023-03-17T13:48:56.145Z,102042.57
2023-03-17T13:51:27.505Z,102042.89
2023-03-17T13:53:58.172Z,102043.45
2023-03-17T13:56:41.601Z,102040.88
2023-03-17T13:59:16.010Z,102040.97
2023-03-17T14:01:55.822Z,102031.48
2023-03-17T14:04:30.975Z,102027.09
2023-03-17T14:07:07.023Z,102020.33
2023-03-17T14:09:42.425Z,102020.81
2023-03-17T14:12:22.020Z,102018.39
2023-03-17T14:15:07.049Z,102018.11
2023-03-17T14:17:50.667Z,102014.26
2023-03-17T14:20:20.457Z,102000.90
2023-03-17T14:22:55.721Z,101994.45
2023-03-17T14:25:27.403Z,101987.79
2023-03-17T14:27:58.137Z,101983.02
2023-03-17T14:30:29.468Z,101967.33
2023-03-17T14:33:05.592Z,101961.42
2023-03-17T14:35:39.349Z,101955.19
2023-03-17T14:38:24.231Z,101957.34
2023-03-17T14:41:01.559Z,101955.11
2023-03-17T14:43:29.773Z,101956.23
2023-03-17T14:46:14.805Z,101941.40
2023-03-17T14:48:46.900Z,101935.05
2023-03-17T14:51:15.097Z,101932.61
2023-03-17T14:53:46.487Z,101935.73
2023-03-17T14:56:14.819Z,101928.55
2023-03-17T14:58:45.689Z,101911.37
2023-03-17T15:01:18.543Z,101926.05
2023-03-17T15:03:59.695Z,101923.14
2023-03-17T15:06:30.134Z,101914.13
2023-03-17T15:09:00.527Z,101902.97
2023-03-17T15:11:48.233Z,101894.23
2023-03-17T15:14:21.727Z,101901.75
2023-03-17T15:16:53.468Z,101900.08
2023-03-17T15:19:21.568Z,101902.79
2023-03-17T15:21:50.025Z,101904.95
2023-03-17T15:24:28.918Z,101914.34
2023-03-17T15:27:18.007Z,101914.65
2023-03-17T15:29:46.786Z,101918.47
2023-03-17T15:32:20.092Z,101919.55
2023-03-17T15:34:50.548Z,101923.24
2023-03-17T15:37:27.621Z,101917.63
2023-03-17T15:39:56.740Z,101915.24
2023-03-17T15:42:28.324Z,101915.05
2023-03-17T15:44:57.004Z,101922.20
2023-03-17T15:47:28.393Z,101911.60
2023-03-17T15:50:13.738Z,101916.04
2023-03-17T15:52:42.949Z,101916.34
2023-03-17T15:55:22.473Z,101922.60
2023-03-17T15:57:55.232Z,101914.67
2023-03-17T16:00:26.636Z,101932.23
2023-03-17T16:02:59.027Z,101936.90
2023-03-17T16:05:31.343Z,101933.77
2023-03-17T16:07:59.528Z,101929.95
2023-03-17T16:10:30.848Z,101932.65
2023-03-17T16:12:59.844Z,101928.88
2023-03-17T16:15:31.622Z,101931.55
2023-03-17T16:18:02.761Z,101936.88
2023-03-17T16:20:38.665Z,101942.09
2023-03-17T16:23:14.254Z,101948.54
2023-03-17T16:25:42.578Z,101944.23
2023-03-17T16:28:23.375Z,101942.52
2023-03-17T16:30:53.190Z,101940.19
2023-03-17T16:33:24.002Z,101932.45
2023-03-17T16:35:53.722Z,101932.17
2023-03-17T16:38:30.316Z,101936.39
2023-03-17T16:41:08.006Z,101935.42
2023-03-17T16:43:38.101Z,101934.65
2023-03-17T16:46:07.290Z,101938.48
2023-03-17T16:48:35.834Z,101939.30
2023-03-17T16:51:05.124Z,101938.53
2023-03-17T16:53:33.373Z,101941.48
2023-03-17T16:56:01.664Z,101942.10
2023-03-17T16:58:34.753Z,101945.54
2023-03-17T17:01:09.991Z,101943.16
2023-03-17T17:03:46.867Z,101945.85
2023-03-17T17:06:15.582Z,101945.29
2023-03-17T17:08:45.139Z,101944.55
2023-03-17T17:11:15.267Z,101936.02
2023-03-17T17:13:46.678Z,101941.21
2023-03-17T17:16:23.066Z,101908.02
2023-03-17T17:18:51.352Z,101941.55
2023-03-17T17:21:19.522Z,101945.39
2023-03-17T17:23:47.789Z,101919.16
2023-03-17T17:26:15.973Z,101942.55
2023-03-17T17:28:44.230Z,101937.86
2023-03-17T17:31:12.555Z,101919.91
2023-03-17T17:33:40.758Z,101928.73
2023-03-17T17:36:14.799Z,101929.79
2023-03-17T17:38:44.019Z,101926.58
2023-03-17T17:41:13.118Z,101926.09
2023-03-17T17:43:41.441Z,101922.58
2023-03-17T17:46:12.497Z,101920.12
2023-03-17T17:48:41.062Z,101913.92
2023-03-17T17:51:09.444Z,101922.89
2023-03-17T17:53:37.611Z,101923.73
2023-03-17T17:56:07.333Z,101927.19
2023-03-17T17:58:35.552Z,101930.58
2023-03-17T18:01:05.605Z,101930.65
2023-03-17T18:03:34.011Z,101926.05
2023-03-17T18:06:02.231Z,101927.89
2023-03-17T18:08:30.371Z,101926.77
2023-03-17T18:10:58.834Z,101929.83
2023-03-17T18:13:27.017Z,101926.69
2023-03-17T18:15:55.168Z,101924.59
2023-03-17T18:18:23.344Z,101926.47
2023-03-17T18:20:52.645Z,101912.75
2023-03-17T18:23:21.259Z,101928.52
2023-03-17T18:25:49.720Z,101919.15
2023-03-17T18:28:18.075Z,101927.50
2023-03-17T18:30:47.017Z,101929.25
2023-03-17T18:33:20.069Z,101912.89
2023-03-17T18:35:51.144Z,101932.52
2023-03-17T18:38:19.514Z,101928.51
2023-03-17T18:40:47.648Z,101927.14
2023-03-17T18:43:15.965Z,101924.50
2023-03-17T18:45:44.954Z,101929.35
2023-03-17T18:48:13.129Z,101927.39
2023-03-17T18:50:41.299Z,101923.39
2023-03-17T18:53:09.660Z,101928.41
2023-03-17T18:55:38.043Z,101928.74
2023-03-17T18:58:06.495Z,101909.38
2023-03-17T19:00:34.735Z,101924.58
2023-03-17T19:03:02.943Z,101923.08
2023-03-17T19:05:31.512Z,101923.11
2023-03-17T19:07:59.607Z,101918.23
2023-03-17T19:10:27.788Z,101913.86
2023-03-17T19:12:56.272Z,101916.10
2023-03-17T19:15:25.454Z,101915.42
2023-03-17T19:17:53.587Z,101911.84
2023-03-17T19:20:22.165Z,101910.27
2023-03-17T19:22:53.293Z,101910.85
2023-03-17T19:25:21.721Z,101912.09
2023-03-17T19:27:49.853Z,101911.69
2023-03-17T19:30:18.814Z,101906.04
2023-03-17T19:32:47.398Z,101904.35
2023-03-17T19:35:15.599Z,101903.61
2023-03-17T19:37:43.648Z,101890.21
2023-03-17T19:40:13.441Z,101904.93
2023-03-17T19:42:41.600Z,101908.90
2023-03-17T19:45:10.762Z,101907.96
2023-03-17T19:47:39.121Z,101907.33
2023-03-17T19:50:07.907Z,101908.21
2023-03-17T19:52:36.004Z,101892.09
2023-03-17T19:55:07.009Z,101907.56
2023-03-17T19:57:36.645Z,101893.23
2023-03-17T20:00:08.950Z,101904.23
2023-03-17T20:02:37.985Z,101900.98
2023-03-17T20:05:07.044Z,101903.31
2023-03-17T20:07:35.316Z,101900.52
2023-03-17T20:10:05.229Z,101903.23
2023-03-17T20:12:37.523Z,101898.31
2023-03-17T20:15:07.900Z,101898.05
2023-03-17T20:17:37.002Z,101896.76
2023-03-17T20:20:07.203Z,101901.05
2023-03-17T20:22:35.559Z,101897.27
2023-03-17T20:25:06.905Z,101895.80
2023-03-17T20:27:36.121Z,101893.31
2023-03-17T20:30:05.940Z,101889.95
2023-03-17T20:32:34.760Z,101887.98
2023-03-17T20:35:02.987Z,101887.35
2023-03-17T20:37:32.426Z,101886.00
2023-03-17T20:40:02.973Z,101883.54
2023-03-17T20:42:31.470Z,101884.88
2023-03-17T20:45:00.277Z,101882.64
2023-03-17T20:47:28.611Z,101875.45
2023-03-17T20:49:58.969Z,101877.47
2023-03-17T20:52:30.130Z,101878.89
2023-03-17T20:55:00.229Z,101874.30
2023-03-17T20:57:28.924Z,101870.22
2023-03-17T20:59:58.188Z,101873.48
2023-03-17T21:02:26.300Z,101871.92
2023-03-17T21:04:54.664Z,101871.10
2023-03-17T21:07:22.758Z,101862.58
2023-03-17T21:09:51.709Z,101866.39
2023-03-17T21:12:21.070Z,101868.39
2023-03-17T21:14:49.891Z,101866.13
2023-03-17T21:17:18.262Z,101865.16
2023-03-17T21:19:46.488Z,101860.92
2023-03-17T21:22:14.635Z,101865.83
2023-03-17T21:24:42.740Z,101861.45
2023-03-17T21:27:11.376Z,101863.59
2023-03-17T21:29:40.600Z,101866.11
2023-03-17T21:32:08.820Z,101860.83
2023-03-17T21:34:38.307Z,101861.27
2023-03-17T21:37:06.413Z,101859.98
2023-03-17T21:39:36.300Z,101856.55
2023-03-17T21:42:05.352Z,101849.27
2023-03-17T21:44:33.477Z,101846.14
2023-03-17T21:47:03.098Z,101843.60
2023-03-17T21:49:31.233Z,101842.90
2023-03-17T21:51:59.466Z,101842.63
2023-03-17T21:54:28.505Z,101841.71
2023-03-17T21:56:57.247Z,101841.70
2023-03-17T21:59:25.706Z,101842.43
2023-03-17T22:01:53.796Z,101841.80
2023-03-17T22:04:21.852Z,101840.22
2023-03-17T22:06:53.394Z,101840.06
2023-03-17T22:09:22.852Z,101828.55
2023-03-17T22:11:50.917Z,101845.63
2023-03-17T22:14:20.797Z,101835.61
2023-03-17T22:16:49.587Z,101845.15
2023-03-17T22:19:21.013Z,101843.64
2023-03-17T22:21:50.223Z,101846.16
2023-03-17T22:24:18.437Z,101842.13
2023-03-17T22:26:46.816Z,101841.85
2023-03-17T22:29:16.224Z,101844.77
2023-03-17T22:31:44.466Z,101844.06
2023-03-17T22:34:12.788Z,101838.95
2023-03-17T22:36:41.622Z,101837.20
2023-03-17T22:39:10.613Z,101832.94
2023-03-17T22:41:39.271Z,101838.63
2023-03-17T22:44:09.204Z,101838.43
2023-03-17T22:46:40.941Z,101836.42
2023-03-17T22:49:09.723Z,101805.85
2023-03-17T22:51:38.776Z,101829.17
2023-03-17T22:54:08.678Z,101832.13
2023-03-17T22:56:37.694Z,101830.36
2023-03-17T22:59:06.017Z,101829.84
2023-03-17T23:01:34.205Z,101828.02
2023-03-17T23:04:02.400Z,101829.31
2023-03-17T23:06:30.880Z,101828.98
2023-03-17T23:08:58.970Z,101831.35
2023-03-17T23:11:27.100Z,101825.17
2023-03-17T23:13:55.904Z,101829.33
2023-03-17T23:16:24.436Z,101829.38
2023-03-17T23:18:52.814Z,101824.30
2023-03-17T23:21:33.371Z,101827.36
2023-03-17T23:24:02.509Z,101830.23
2023-03-17T23:26:32.121Z,101830.87
2023-03-17T23:29:00.866Z,101831.89
2023-03-17T23:31:29.078Z,101830.02
2023-03-17T23:33:57.153Z,101824.73
2023-03-17T23:36:25.364Z,101822.94
2023-03-17T23:38:53.634Z,101809.10
2023-03-17T23:41:22.800Z,101821.64
2023-03-17T23:43:51.202Z,101817.91
2023-03-17T23:46:20.723Z,101812.93
2023-03-17T23:48:49.442Z,101814.41
2023-03-17T23:51:18.017Z,101804.91
2023-03-17T23:53:46.575Z,101809.14
2023-03-17T23:56:14.901Z,101802.27
2023-03-17T23:58:43.452Z,101798.95
